createdAt,value
2023-09-19T00:00:30.826Z,96.27
2023-09-19T00:01:35.265Z,96.28
2023-09-19T00:02:39.697Z,96.28
2023-09-19T00:03:44.805Z,96.27
2023-09-19T00:04:48.528Z,96.26
2023-09-19T00:05:52.979Z,96.27
2023-09-19T00:06:57.402Z,96.28
2023-09-19T00:08:01.845Z,96.25
2023-09-19T00:09:06.241Z,96.23
2023-09-19T00:10:10.678Z,96.21
2023-09-19T00:11:15.100Z,96.21
2023-09-19T00:12:19.558Z,96.19
2023-09-19T00:13:24.021Z,96.18
2023-09-19T00:14:28.432Z,96.16
2023-09-19T00:15:32.819Z,96.14
2023-09-19T00:16:37.448Z,96.11
2023-09-19T00:17:41.944Z,96.09
2023-09-19T00:18:46.229Z,96.11
2023-09-19T00:19:50.684Z,96.06
2023-09-19T00:20:55.142Z,96.04
2023-09-19T00:22:05.584Z,96.03
2023-09-19T00:23:08.708Z,96.01
2023-09-19T00:24:13.132Z,96.00
2023-09-19T00:25:17.552Z,96.02
2023-09-19T00:26:21.974Z,96.01
2023-09-19T00:27:26.402Z,95.98
2023-09-19T00:28:30.894Z,95.97
2023-09-19T00:29:35.330Z,95.94
2023-09-19T00:30:39.872Z,95.92
2023-09-19T00:31:44.217Z,95.90
2023-09-19T00:32:54.723Z,95.88
2023-09-19T00:33:57.802Z,95.84
2023-09-19T00:35:02.202Z,95.83
2023-09-19T00:36:06.915Z,95.78
2023-09-19T00:37:11.080Z,95.74
2023-09-19T00:38:15.503Z,95.70
2023-09-19T00:39:19.949Z,95.64
2023-09-19T00:40:24.410Z,95.58
2023-09-19T00:41:28.795Z,95.49
2023-09-19T00:42:39.221Z,95.42
2023-09-19T00:43:42.586Z,95.35
2023-09-19T00:44:46.763Z,95.26
2023-09-19T00:45:51.221Z,95.20
2023-09-19T00:46:55.849Z,95.08
2023-09-19T00:48:00.194Z,94.96
2023-09-19T00:49:04.494Z,94.75
2023-09-19T00:50:08.947Z,94.54
2023-09-19T00:51:13.344Z,94.40
2023-09-19T00:52:17.972Z,94.20
2023-09-19T00:53:22.450Z,93.88
2023-09-19T00:54:26.852Z,93.74
2023-09-19T00:55:45.512Z,93.70
2023-09-19T00:56:48.615Z,93.51
2023-09-19T00:57:58.971Z,93.19
2023-09-19T00:59:02.080Z,93.11
2023-09-19T01:00:06.574Z,93.04
2023-09-19T01:01:10.963Z,93.06
2023-09-19T01:02:15.416Z,93.11
2023-09-19T01:03:20.072Z,92.97
2023-09-19T01:04:24.263Z,92.75
2023-09-19T01:05:28.659Z,92.69
2023-09-19T01:06:33.097Z,92.61
2023-09-19T01:07:37.538Z,92.47
2023-09-19T01:08:41.916Z,92.35
2023-09-19T01:09:46.361Z,92.29
2023-09-19T01:10:50.837Z,92.17
2023-09-19T01:11:55.214Z,92.07
2023-09-19T01:12:59.626Z,92.19
2023-09-19T01:14:03.949Z,92.27
2023-09-19T01:15:08.453Z,92.33
2023-09-19T01:16:13.465Z,92.36
2023-09-19T01:17:17.378Z,92.39
2023-09-19T01:18:21.773Z,92.40
2023-09-19T01:19:26.318Z,92.39
2023-09-19T01:20:30.667Z,92.41
2023-09-19T01:21:49.110Z,92.35
2023-09-19T01:22:52.532Z,92.37
2023-09-19T01:23:56.909Z,92.40
2023-09-19T01:25:01.336Z,92.46
2023-09-19T01:26:05.750Z,92.49
2023-09-19T01:27:10.198Z,92.53
2023-09-19T01:28:14.632Z,92.57
2023-09-19T01:29:19.025Z,92.63
2023-09-19T01:30:23.473Z,92.67
2023-09-19T01:31:27.944Z,92.71
2023-09-19T01:32:32.397Z,92.73
2023-09-19T01:33:36.782Z,92.73
2023-09-19T01:34:41.202Z,92.75
2023-09-19T01:35:45.621Z,92.76
2023-09-19T01:36:50.077Z,92.75
2023-09-19T01:37:54.479Z,92.75
2023-09-19T01:38:58.925Z,92.75
2023-09-19T01:40:03.345Z,92.75
2023-09-19T01:41:07.752Z,92.75
2023-09-19T01:42:12.185Z,92.75
2023-09-19T01:43:16.770Z,92.76
2023-09-19T01:44:21.105Z,92.76
2023-09-19T01:45:25.580Z,92.79
2023-09-19T01:46:30.070Z,92.81
2023-09-19T01:47:34.424Z,92.84
2023-09-19T01:48:38.910Z,92.88
2023-09-19T01:49:43.362Z,92.92
2023-09-19T01:50:47.689Z,92.93
2023-09-19T01:51:52.128Z,92.97
2023-09-19T01:52:56.579Z,92.98
2023-09-19T01:54:00.985Z,93.07
2023-09-19T01:55:05.391Z,93.12
2023-09-19T01:56:09.836Z,93.18
2023-09-19T01:57:14.276Z,93.22
2023-09-19T01:58:24.708Z,93.25
2023-09-19T01:59:41.873Z,93.29
2023-09-19T02:00:45.295Z,93.38
2023-09-19T02:01:49.816Z,93.44
2023-09-19T02:02:54.147Z,93.52
2023-09-19T02:03:58.511Z,93.52
2023-09-19T02:05:02.888Z,93.61
2023-09-19T02:06:07.306Z,93.69
2023-09-19T02:07:11.867Z,93.73
2023-09-19T02:08:16.134Z,93.79
2023-09-19T02:09:20.604Z,93.80
2023-09-19T02:10:25.056Z,93.86
2023-09-19T02:11:29.384Z,93.88
2023-09-19T02:12:33.816Z,93.92
2023-09-19T02:13:41.403Z,93.96
2023-09-19T02:14:44.738Z,93.97
2023-09-19T02:15:49.204Z,94.00
2023-09-19T02:16:53.662Z,94.02
2023-09-19T02:17:58.180Z,94.04
2023-09-19T02:19:02.430Z,94.05
2023-09-19T02:20:06.838Z,94.07
2023-09-19T02:21:11.248Z,94.10
2023-09-19T02:22:15.732Z,94.11
2023-09-19T02:23:20.154Z,94.14
2023-09-19T02:24:24.569Z,94.11
2023-09-19T02:25:43.103Z,94.15
2023-09-19T02:26:46.282Z,94.16
2023-09-19T02:27:50.658Z,94.19
2023-09-19T02:28:55.032Z,94.24
2023-09-19T02:29:59.464Z,94.30
2023-09-19T02:31:04.004Z,94.35
2023-09-19T02:32:08.486Z,94.35
2023-09-19T02:33:12.794Z,94.36
2023-09-19T02:34:17.221Z,94.35
2023-09-19T02:35:21.643Z,94.37
2023-09-19T02:36:26.084Z,94.48
2023-09-19T02:37:30.543Z,94.49
2023-09-19T02:38:48.935Z,94.48
2023-09-19T02:39:58.082Z,94.48
2023-09-19T02:41:01.143Z,94.44
2023-09-19T02:42:05.512Z,94.50
2023-09-19T02:43:09.929Z,94.49
2023-09-19T02:44:14.438Z,94.62
2023-09-19T02:45:18.834Z,94.61
2023-09-19T02:46:23.334Z,94.68
2023-09-19T02:47:27.861Z,94.66
2023-09-19T02:48:32.157Z,94.67
2023-09-19T02:49:36.598Z,94.70
2023-09-19T02:50:41.004Z,94.70
2023-09-19T02:51:45.457Z,94.73
2023-09-19T02:52:50.180Z,94.76
2023-09-19T02:53:54.308Z,94.82
2023-09-19T02:54:58.767Z,94.84
2023-09-19T02:56:03.205Z,94.88
2023-09-19T02:57:07.614Z,94.89
2023-09-19T02:58:12.123Z,94.89
2023-09-19T02:59:16.448Z,94.90
2023-09-19T03:00:20.893Z,94.91
2023-09-19T03:01:25.431Z,94.89
2023-09-19T03:02:29.798Z,94.89
2023-09-19T03:03:34.199Z,94.93
2023-09-19T03:04:38.615Z,94.95
2023-09-19T03:05:42.967Z,94.95
2023-09-19T03:06:47.408Z,94.95
2023-09-19T03:07:52.063Z,94.99
2023-09-19T03:08:56.242Z,94.99
2023-09-19T03:10:00.681Z,94.96
2023-09-19T03:11:05.087Z,94.97
2023-09-19T03:12:09.494Z,94.97
2023-09-19T03:13:13.974Z,94.98
2023-09-19T03:14:18.374Z,94.99
2023-09-19T03:15:22.807Z,94.99
2023-09-19T03:16:27.340Z,94.98
2023-09-19T03:17:31.769Z,94.95
2023-09-19T03:18:36.045Z,95.00
2023-09-19T03:19:54.607Z,95.00
2023-09-19T03:20:58.025Z,95.02
2023-09-19T03:22:02.434Z,95.06
2023-09-19T03:23:06.817Z,95.13
2023-09-19T03:24:11.271Z,95.17
2023-09-19T03:25:15.817Z,95.25
2023-09-19T03:26:20.168Z,95.27
2023-09-19T03:27:24.629Z,95.31
2023-09-19T03:28:29.048Z,95.34
2023-09-19T03:29:35.590Z,95.33
2023-09-19T03:30:51.891Z,95.43
2023-09-19T03:31:55.211Z,95.50
2023-09-19T03:32:59.522Z,95.54
2023-09-19T03:34:03.838Z,95.59
2023-09-19T03:35:08.298Z,95.63
2023-09-19T03:36:12.657Z,95.60
2023-09-19T03:37:17.105Z,95.57
2023-09-19T03:38:21.482Z,95.60
2023-09-19T03:39:25.904Z,95.60
2023-09-19T03:40:30.326Z,95.57
2023-09-19T03:41:34.684Z,95.56
2023-09-19T03:42:39.146Z,95.59
2023-09-19T03:43:43.717Z,95.58
2023-09-19T03:44:51.043Z,95.60
2023-09-19T03:45:54.641Z,95.64
2023-09-19T03:46:59.116Z,95.69
2023-09-19T03:48:03.402Z,95.72
2023-09-19T03:49:07.850Z,95.73
2023-09-19T03:50:12.483Z,95.80
2023-09-19T03:51:16.618Z,95.82
2023-09-19T03:52:21.064Z,95.86
2023-09-19T03:53:25.429Z,95.88
2023-09-19T03:54:29.930Z,95.88
2023-09-19T03:55:34.347Z,95.89
2023-09-19T03:56:38.752Z,95.89
2023-09-19T03:57:43.124Z,95.89
2023-09-19T03:58:47.594Z,95.94
2023-09-19T03:59:51.936Z,95.94
2023-09-19T04:00:56.472Z,95.98
2023-09-19T04:02:00.783Z,95.99
2023-09-19T04:03:05.318Z,95.93
2023-09-19T04:04:09.667Z,95.96
2023-09-19T04:05:14.000Z,95.96
2023-09-19T04:06:18.435Z,95.99
2023-09-19T04:07:22.847Z,95.98
2023-09-19T04:08:27.098Z,95.96
2023-09-19T04:09:31.600Z,95.97
2023-09-19T04:10:36.015Z,95.97
2023-09-19T04:11:40.372Z,95.95
2023-09-19T04:12:44.789Z,95.96
2023-09-19T04:13:49.234Z,95.97
2023-09-19T04:14:53.542Z,95.96
2023-09-19T04:15:58.079Z,95.96
2023-09-19T04:17:02.556Z,95.93
2023-09-19T04:18:06.999Z,95.86
2023-09-19T04:19:11.390Z,95.88
2023-09-19T04:20:15.782Z,95.82
2023-09-19T04:21:20.224Z,95.84
2023-09-19T04:22:30.741Z,95.82
2023-09-19T04:23:33.884Z,95.79
2023-09-19T04:24:38.245Z,95.78
2023-09-19T04:25:42.683Z,95.75
2023-09-19T04:26:47.054Z,95.77
2023-09-19T04:27:51.497Z,95.74
2023-09-19T04:28:56.001Z,95.73
2023-09-19T04:30:00.540Z,95.70
2023-09-19T04:31:07.771Z,95.67
2023-09-19T04:32:11.331Z,95.64
2023-09-19T04:33:15.635Z,95.63
2023-09-19T04:34:20.060Z,95.58
2023-09-19T04:35:24.407Z,95.59
2023-09-19T04:36:36.535Z,95.55
2023-09-19T04:37:37.948Z,95.54
2023-09-19T04:38:43.524Z,95.54
2023-09-19T04:39:46.698Z,95.53
2023-09-19T04:40:51.156Z,95.48
2023-09-19T04:41:55.492Z,95.55
2023-09-19T04:43:05.940Z,95.58
2023-09-19T04:44:08.876Z,95.61
2023-09-19T04:45:13.427Z,95.67
2023-09-19T04:46:17.831Z,95.68
2023-09-19T04:47:22.248Z,95.76
2023-09-19T04:48:26.526Z,95.74
2023-09-19T04:49:30.989Z,95.78
2023-09-19T04:50:35.346Z,95.79
2023-09-19T04:51:39.742Z,95.79
2023-09-19T04:52:44.246Z,95.83
2023-09-19T04:53:48.628Z,95.83
2023-09-19T04:54:53.042Z,95.88
2023-09-19T04:55:57.448Z,95.92
2023-09-19T04:57:01.833Z,95.95
2023-09-19T04:58:06.280Z,95.99
2023-09-19T04:59:10.673Z,95.98
2023-09-19T05:00:15.064Z,96.03
2023-09-19T05:01:19.511Z,96.06
2023-09-19T05:02:24.040Z,96.06
2023-09-19T05:03:28.385Z,96.13
2023-09-19T05:04:32.854Z,96.08
2023-09-19T05:05:37.261Z,96.06
2023-09-19T05:06:43.019Z,96.11
2023-09-19T05:07:46.122Z,96.06
2023-09-19T05:08:50.447Z,96.05
2023-09-19T05:09:54.839Z,96.06
2023-09-19T05:10:59.354Z,96.11
2023-09-19T05:12:03.675Z,96.14
2023-09-19T05:13:08.093Z,96.18
2023-09-19T05:14:12.587Z,96.15
2023-09-19T05:15:16.915Z,96.13
2023-09-19T05:16:21.441Z,96.13
2023-09-19T05:17:25.762Z,96.09
2023-09-19T05:18:30.086Z,96.07
2023-09-19T05:19:40.516Z,96.06
2023-09-19T05:20:43.545Z,96.05
2023-09-19T05:21:47.904Z,96.09
2023-09-19T05:22:52.337Z,96.08
2023-09-19T05:24:11.492Z,96.10
2023-09-19T05:25:14.161Z,96.10
2023-09-19T05:26:18.508Z,96.10
2023-09-19T05:27:22.920Z,96.10
2023-09-19T05:28:27.312Z,96.15
2023-09-19T05:29:31.692Z,96.17
2023-09-19T05:30:36.096Z,96.17
2023-09-19T05:31:40.601Z,96.19
2023-09-19T05:32:45.014Z,96.19
2023-09-19T05:33:49.332Z,96.17
2023-09-19T05:34:53.756Z,96.20
2023-09-19T05:35:58.104Z,96.16
2023-09-19T05:37:02.531Z,96.12
2023-09-19T05:38:06.945Z,96.13
2023-09-19T05:40:39.082Z,96.14
2023-09-19T05:41:43.266Z,96.17
2023-09-19T05:42:47.693Z,96.18
2023-09-19T05:43:52.124Z,96.22
2023-09-19T05:44:56.489Z,96.23
2023-09-19T05:46:00.919Z,96.23
2023-09-19T05:47:05.308Z,96.24
2023-09-19T05:48:09.663Z,96.27
2023-09-19T05:49:14.118Z,96.32
2023-09-19T05:50:18.555Z,96.34
2023-09-19T05:51:22.977Z,96.37
2023-09-19T05:52:27.398Z,96.41
2023-09-19T05:53:31.799Z,96.42
2023-09-19T05:54:36.213Z,96.44
2023-09-19T05:55:40.679Z,96.49
2023-09-19T05:56:45.046Z,96.50
2023-09-19T05:57:49.445Z,96.50
2023-09-19T05:58:53.902Z,96.50
2023-09-19T05:59:58.182Z,96.48
2023-09-19T06:01:02.669Z,96.50
2023-09-19T06:02:21.276Z,96.45
2023-09-19T06:03:24.399Z,96.46
2023-09-19T06:04:28.855Z,96.49
2023-09-19T06:05:33.249Z,96.48
2023-09-19T06:06:37.705Z,96.45
2023-09-19T06:07:42.170Z,96.40
2023-09-19T06:08:46.515Z,96.36
2023-09-19T06:09:50.985Z,96.32
2023-09-19T06:10:55.453Z,96.23
2023-09-19T06:11:59.774Z,96.14
2023-09-19T06:13:04.182Z,96.03
2023-09-19T06:14:08.612Z,95.94
2023-09-19T06:15:13.000Z,95.72
2023-09-19T06:16:17.460Z,95.57
2023-09-19T06:17:21.805Z,95.46
2023-09-19T06:18:26.157Z,95.38
2023-09-19T06:19:30.506Z,95.14
2023-09-19T06:20:34.881Z,94.56
2023-09-19T06:21:39.343Z,94.00
2023-09-19T06:22:43.802Z,93.53
2023-09-19T06:23:51.125Z,93.12
2023-09-19T06:24:54.655Z,92.78
2023-09-19T06:25:59.106Z,92.48
2023-09-19T06:27:03.467Z,92.33
2023-09-19T06:28:08.025Z,91.67
2023-09-19T06:29:12.382Z,91.19
2023-09-19T06:30:16.761Z,90.96
2023-09-19T06:31:21.197Z,90.71
2023-09-19T06:32:25.677Z,90.27
2023-09-19T06:33:30.033Z,89.95
2023-09-19T06:34:34.425Z,89.62
2023-09-19T06:35:52.910Z,89.49
2023-09-19T06:36:56.277Z,88.91
2023-09-19T06:38:00.719Z,88.94
2023-09-19T06:39:04.992Z,89.00
2023-09-19T06:40:09.476Z,88.77
2023-09-19T06:41:13.912Z,88.72
2023-09-19T06:42:19.776Z,88.58
2023-09-19T06:43:22.790Z,88.45
2023-09-19T06:44:27.104Z,88.36
2023-09-19T06:45:31.541Z,88.02
2023-09-19T06:46:36.042Z,87.72
2023-09-19T06:47:40.418Z,87.37
2023-09-19T06:48:44.868Z,87.40
2023-09-19T06:49:49.285Z,87.47
2023-09-19T06:50:53.622Z,87.33
2023-09-19T06:51:58.075Z,87.28
2023-09-19T06:53:02.479Z,86.99
2023-09-19T06:54:06.916Z,86.60
2023-09-19T06:55:11.297Z,86.60
2023-09-19T06:56:15.726Z,86.60
2023-09-19T06:57:20.230Z,86.51
2023-09-19T06:58:24.624Z,86.50
2023-09-19T06:59:29.046Z,86.42
2023-09-19T07:00:33.427Z,86.45
2023-09-19T07:01:37.924Z,86.46
2023-09-19T07:02:42.373Z,86.26
2023-09-19T07:03:46.697Z,86.19
2023-09-19T07:04:51.120Z,85.86
2023-09-19T07:05:55.435Z,85.49
2023-09-19T07:06:59.958Z,85.06
2023-09-19T07:08:04.452Z,85.23
2023-09-19T07:09:08.785Z,85.29
2023-09-19T07:10:13.227Z,85.40
2023-09-19T07:11:17.640Z,85.39
2023-09-19T07:12:22.055Z,85.39
2023-09-19T07:13:26.617Z,85.48
2023-09-19T07:14:30.916Z,85.29
2023-09-19T07:15:35.391Z,85.03
2023-09-19T07:16:39.788Z,84.81
2023-09-19T07:17:44.198Z,84.94
2023-09-19T07:18:48.598Z,84.75
2023-09-19T07:19:53.114Z,84.73
2023-09-19T07:20:57.494Z,84.79
2023-09-19T07:22:15.929Z,84.62
2023-09-19T07:23:19.434Z,84.33
2023-09-19T07:24:23.730Z,84.25
2023-09-19T07:25:28.263Z,84.13
2023-09-19T07:26:46.536Z,84.09
2023-09-19T07:27:49.896Z,84.07
2023-09-19T07:28:54.336Z,84.11
2023-09-19T07:29:58.673Z,83.80
2023-09-19T07:31:03.104Z,83.78
2023-09-19T07:32:07.501Z,83.91
2023-09-19T07:33:11.862Z,83.89
2023-09-19T07:34:16.121Z,83.72
2023-09-19T07:35:20.617Z,83.61
2023-09-19T07:36:25.026Z,83.42
2023-09-19T07:37:29.507Z,83.37
2023-09-19T07:38:33.896Z,83.31
2023-09-19T07:39:38.330Z,83.31
2023-09-19T07:40:42.745Z,83.35
2023-09-19T07:41:47.144Z,83.39
2023-09-19T07:42:51.905Z,83.38
2023-09-19T07:43:56.111Z,83.19
2023-09-19T07:45:00.381Z,83.29
2023-09-19T07:46:04.859Z,83.35
2023-09-19T07:47:10.520Z,83.35
2023-09-19T07:48:13.719Z,83.32
2023-09-19T07:49:18.476Z,83.42
2023-09-19T07:50:22.505Z,82.99
2023-09-19T07:51:32.960Z,82.79
2023-09-19T07:52:36.108Z,82.74
2023-09-19T07:53:40.777Z,82.93
2023-09-19T07:54:44.973Z,82.57
2023-09-19T07:55:49.682Z,82.34
2023-09-19T07:56:53.704Z,82.25
2023-09-19T07:57:58.125Z,82.33
2023-09-19T07:59:02.635Z,82.11
2023-09-19T08:00:06.937Z,81.81
2023-09-19T08:01:11.406Z,81.57
2023-09-19T08:02:15.775Z,81.50
2023-09-19T08:03:20.338Z,81.47
2023-09-19T08:04:24.784Z,81.28
2023-09-19T08:05:29.106Z,81.05
2023-09-19T08:06:33.450Z,80.96
2023-09-19T08:07:37.947Z,80.80
2023-09-19T08:08:42.308Z,80.70
2023-09-19T08:09:46.736Z,80.80
2023-09-19T08:10:51.159Z,81.00
2023-09-19T08:11:55.582Z,81.28
2023-09-19T08:13:00.034Z,81.57
2023-09-19T08:14:04.520Z,81.48
2023-09-19T08:15:08.835Z,81.18
2023-09-19T08:16:13.303Z,80.80
2023-09-19T08:17:17.700Z,80.53
2023-09-19T08:18:22.088Z,80.23
2023-09-19T08:19:26.469Z,80.31
2023-09-19T08:20:30.896Z,80.43
2023-09-19T08:21:35.322Z,80.51
2023-09-19T08:22:39.745Z,80.59
2023-09-19T08:23:44.170Z,80.52
2023-09-19T08:24:48.580Z,80.48
2023-09-19T08:25:53.150Z,80.23
2023-09-19T08:26:57.447Z,80.22
2023-09-19T08:28:01.862Z,80.19
2023-09-19T08:29:06.704Z,80.22
2023-09-19T08:30:10.748Z,79.94
2023-09-19T08:31:15.146Z,79.86
2023-09-19T08:32:19.620Z,79.56
2023-09-19T08:33:23.986Z,79.29
2023-09-19T08:34:28.505Z,79.06
2023-09-19T08:35:32.817Z,79.12
2023-09-19T08:36:37.110Z,79.07
2023-09-19T08:37:41.649Z,79.39
2023-09-19T08:38:45.996Z,79.58
2023-09-19T08:39:50.434Z,79.85
2023-09-19T08:40:54.925Z,80.08
2023-09-19T08:41:59.252Z,79.99
2023-09-19T08:43:03.671Z,79.88
2023-09-19T08:44:08.628Z,79.75
2023-09-19T08:45:12.486Z,79.75
2023-09-19T08:46:16.957Z,79.54
2023-09-19T08:47:21.432Z,79.22
2023-09-19T08:48:25.731Z,78.98
2023-09-19T08:49:30.210Z,78.69
2023-09-19T08:50:34.574Z,78.37
2023-09-19T08:51:39.002Z,78.40
2023-09-19T08:52:43.507Z,78.55
2023-09-19T08:53:47.799Z,78.49
2023-09-19T08:54:52.250Z,78.59
2023-09-19T08:55:56.689Z,78.75
2023-09-19T08:57:01.064Z,79.02
2023-09-19T08:58:05.530Z,79.28
2023-09-19T08:59:09.943Z,79.32
2023-09-19T09:00:14.362Z,79.44
2023-09-19T09:01:18.915Z,79.52
2023-09-19T09:02:23.224Z,79.26
2023-09-19T09:03:27.678Z,79.12
2023-09-19T09:04:35.097Z,78.98
2023-09-19T09:05:38.679Z,79.11
2023-09-19T09:06:43.034Z,79.29
2023-09-19T09:07:47.543Z,79.32
2023-09-19T09:08:51.900Z,79.22
2023-09-19T09:10:02.372Z,79.22
2023-09-19T09:11:05.456Z,79.30
2023-09-19T09:12:09.929Z,79.29
2023-09-19T09:13:14.268Z,79.36
2023-09-19T09:14:18.698Z,79.31
2023-09-19T09:15:23.157Z,79.14
2023-09-19T09:16:27.782Z,78.96
2023-09-19T09:17:32.083Z,78.98
2023-09-19T09:18:36.376Z,78.94
2023-09-19T09:19:40.872Z,79.04
2023-09-19T09:20:45.240Z,79.10
2023-09-19T09:21:49.691Z,79.07
2023-09-19T09:22:54.123Z,79.15
2023-09-19T09:23:58.529Z,78.84
2023-09-19T09:25:02.996Z,78.80
2023-09-19T09:26:07.413Z,78.70
2023-09-19T09:27:11.800Z,78.74
2023-09-19T09:28:16.268Z,78.79
2023-09-19T09:29:21.681Z,78.77
2023-09-19T09:30:25.300Z,78.83
2023-09-19T09:31:29.622Z,78.96
2023-09-19T09:32:33.969Z,79.08
2023-09-19T09:33:52.555Z,79.20
2023-09-19T09:34:57.966Z,79.13
2023-09-19T09:36:06.200Z,79.20
2023-09-19T09:37:23.392Z,79.06
2023-09-19T09:38:26.549Z,78.58
2023-09-19T09:39:30.881Z,78.52
2023-09-19T09:40:35.328Z,78.45
2023-09-19T09:41:39.685Z,78.08
2023-09-19T09:42:50.086Z,77.88
2023-09-19T09:43:53.234Z,77.94
2023-09-19T09:44:57.624Z,77.97
2023-09-19T09:46:02.068Z,78.00
2023-09-19T09:47:06.445Z,77.98
2023-09-19T09:48:10.848Z,78.05
2023-09-19T09:49:15.443Z,78.08
2023-09-19T09:50:19.685Z,78.11
2023-09-19T09:51:24.084Z,78.02
2023-09-19T09:52:28.586Z,77.77
2023-09-19T09:53:34.109Z,77.76
2023-09-19T09:54:38.097Z,77.75
2023-09-19T09:55:42.586Z,78.00
2023-09-19T09:56:47.000Z,77.76
2023-09-19T09:57:51.431Z,77.24
2023-09-19T09:58:55.927Z,77.00
2023-09-19T10:00:00.600Z,76.52
2023-09-19T10:01:04.714Z,76.30
2023-09-19T10:02:09.275Z,76.34
2023-09-19T10:03:13.800Z,76.50
2023-09-19T10:04:18.100Z,76.40
2023-09-19T10:05:22.653Z,76.32
2023-09-19T10:06:27.114Z,76.35
2023-09-19T10:07:31.448Z,76.43
2023-09-19T10:08:35.837Z,76.45
2023-09-19T10:09:40.243Z,76.24
2023-09-19T10:10:44.958Z,76.14
2023-09-19T10:11:49.165Z,75.94
2023-09-19T10:12:53.561Z,75.96
2023-09-19T10:13:57.994Z,76.01
2023-09-19T10:15:02.392Z,76.31
2023-09-19T10:16:06.862Z,76.33
2023-09-19T10:17:11.315Z,76.40
2023-09-19T10:18:15.688Z,76.44
2023-09-19T10:19:20.119Z,76.40
2023-09-19T10:20:24.537Z,76.25
2023-09-19T10:21:29.081Z,76.32
2023-09-19T10:22:33.476Z,76.29
2023-09-19T10:23:37.930Z,76.28
2023-09-19T10:24:56.756Z,76.19
2023-09-19T10:25:46.789Z,76.32
2023-09-19T10:26:51.125Z,76.17
2023-09-19T10:27:55.547Z,76.04
2023-09-19T10:29:00.049Z,75.99
2023-09-19T10:30:04.467Z,75.93
2023-09-19T10:31:08.892Z,75.96
2023-09-19T10:32:13.523Z,76.12
2023-09-19T10:33:17.725Z,75.96
2023-09-19T10:34:22.133Z,75.82
2023-09-19T10:35:26.573Z,75.85
2023-09-19T10:36:30.981Z,75.65
2023-09-19T10:37:35.455Z,75.35
2023-09-19T10:38:40.021Z,75.42
2023-09-19T10:39:44.218Z,75.72
2023-09-19T10:40:48.727Z,75.77
2023-09-19T10:41:53.055Z,76.09
2023-09-19T10:42:57.519Z,75.80
2023-09-19T10:44:02.073Z,75.65
2023-09-19T10:45:06.462Z,75.86
2023-09-19T10:46:10.925Z,75.99
2023-09-19T10:47:15.350Z,75.78
2023-09-19T10:48:19.753Z,75.68
2023-09-19T10:49:24.195Z,75.42
2023-09-19T10:50:28.670Z,75.43
2023-09-19T10:51:33.047Z,75.55
2023-09-19T10:52:37.486Z,75.74
2023-09-19T10:53:41.907Z,75.75
2023-09-19T10:54:46.304Z,76.00
2023-09-19T10:55:50.788Z,76.07
2023-09-19T10:56:55.128Z,75.93
2023-09-19T10:57:59.545Z,75.89
2023-09-19T10:59:04.045Z,75.86
2023-09-19T11:00:22.594Z,75.50
2023-09-19T11:01:25.694Z,75.07
2023-09-19T11:02:30.199Z,75.05
2023-09-19T11:03:34.804Z,74.85
2023-09-19T11:04:52.951Z,74.83
2023-09-19T11:05:56.225Z,75.08
2023-09-19T11:07:00.603Z,74.98
2023-09-19T11:08:05.138Z,74.92
2023-09-19T11:09:09.443Z,75.07
2023-09-19T11:10:13.873Z,74.61
2023-09-19T11:11:18.274Z,74.45
2023-09-19T11:12:36.801Z,74.06
2023-09-19T11:13:40.110Z,73.57
2023-09-19T11:14:50.500Z,73.48
2023-09-19T11:15:53.605Z,73.64
2023-09-19T11:16:57.961Z,73.59
2023-09-19T11:18:02.453Z,73.54
2023-09-19T11:19:06.832Z,73.55
2023-09-19T11:20:11.249Z,73.64
2023-09-19T11:21:15.776Z,73.51
2023-09-19T11:22:23.152Z,73.56
2023-09-19T11:23:26.706Z,73.56
2023-09-19T11:24:31.149Z,73.74
2023-09-19T11:25:35.978Z,73.72
2023-09-19T11:26:40.052Z,73.47
2023-09-19T11:27:44.447Z,73.23
2023-09-19T11:28:48.929Z,73.27
2023-09-19T11:29:53.367Z,73.52
2023-09-19T11:30:57.836Z,73.50
2023-09-19T11:32:02.346Z,73.38
2023-09-19T11:33:06.805Z,72.99
2023-09-19T11:34:11.201Z,72.86
2023-09-19T11:35:15.746Z,72.92
2023-09-19T11:36:20.088Z,73.10
2023-09-19T11:37:24.530Z,72.93
2023-09-19T11:38:28.930Z,72.66
2023-09-19T11:39:33.401Z,72.65
2023-09-19T11:40:37.864Z,72.50
2023-09-19T11:41:42.321Z,72.22
2023-09-19T11:42:46.773Z,72.45
2023-09-19T11:43:52.121Z,72.47
2023-09-19T11:44:55.524Z,71.57
2023-09-19T11:46:00.105Z,71.72
2023-09-19T11:47:04.618Z,71.03
2023-09-19T11:48:08.966Z,71.00
2023-09-19T11:49:13.373Z,71.62
2023-09-19T11:50:17.874Z,71.92
2023-09-19T11:51:22.263Z,71.72
2023-09-19T11:52:26.735Z,71.08
2023-09-19T11:53:31.174Z,71.40
2023-09-19T11:54:35.606Z,71.18
2023-09-19T11:55:40.147Z,71.28
2023-09-19T11:56:44.556Z,71.35
2023-09-19T11:57:49.239Z,71.53
2023-09-19T11:58:53.419Z,71.41
2023-09-19T11:59:57.825Z,71.48
2023-09-19T12:01:02.303Z,71.31
2023-09-19T12:02:06.702Z,71.16
2023-09-19T12:03:11.152Z,71.35
2023-09-19T12:04:15.619Z,71.44
2023-09-19T12:05:23.008Z,70.69
2023-09-19T12:06:26.562Z,70.41
2023-09-19T12:07:31.011Z,70.20
2023-09-19T12:08:35.411Z,69.55
2023-09-19T12:09:39.866Z,69.54
2023-09-19T12:10:44.364Z,69.86
2023-09-19T12:11:48.743Z,69.83
2023-09-19T12:12:53.230Z,69.65
2023-09-19T12:13:57.677Z,69.69
2023-09-19T12:15:02.073Z,69.28
2023-09-19T12:16:06.534Z,69.04
2023-09-19T12:17:11.042Z,68.84
2023-09-19T12:18:15.530Z,69.02
2023-09-19T12:19:19.837Z,69.02
2023-09-19T12:20:24.291Z,69.14
2023-09-19T12:21:28.842Z,69.53
2023-09-19T12:22:33.189Z,69.86
2023-09-19T12:23:37.584Z,70.13
2023-09-19T12:24:41.998Z,69.96
2023-09-19T12:25:46.476Z,69.64
2023-09-19T12:26:50.971Z,69.48
2023-09-19T12:27:55.373Z,69.11
2023-09-19T12:28:59.825Z,69.51
2023-09-19T12:30:17.168Z,69.39
2023-09-19T12:31:08.738Z,69.24
2023-09-19T12:32:13.126Z,69.33
2023-09-19T12:33:17.543Z,69.32
2023-09-19T12:34:22.060Z,69.34
2023-09-19T12:35:26.475Z,69.13
2023-09-19T12:36:33.942Z,69.05
2023-09-19T12:37:37.511Z,68.94
2023-09-19T12:38:41.764Z,69.22
2023-09-19T12:39:52.221Z,69.17
2023-09-19T12:40:55.434Z,69.75
2023-09-19T12:42:05.790Z,69.89
2023-09-19T12:43:08.891Z,69.99
2023-09-19T12:44:13.356Z,70.14
2023-09-19T12:45:20.741Z,70.19
2023-09-19T12:46:25.522Z,70.25
2023-09-19T12:47:34.779Z,70.33
2023-09-19T12:48:51.924Z,70.07
2023-09-19T12:49:55.234Z,70.28
2023-09-19T12:50:59.536Z,70.42
2023-09-19T12:52:04.070Z,70.47
2023-09-19T12:53:08.426Z,70.17
2023-09-19T12:54:12.804Z,70.20
2023-09-19T12:55:17.247Z,70.39
2023-09-19T12:56:21.651Z,70.48
2023-09-19T12:57:26.095Z,70.30
2023-09-19T12:58:30.604Z,70.33
2023-09-19T12:59:40.677Z,70.42
2023-09-19T13:00:41.592Z,70.71
2023-09-19T13:01:46.167Z,70.48
2023-09-19T13:02:50.537Z,70.50
2023-09-19T13:03:55.028Z,70.50
2023-09-19T13:05:13.388Z,70.22
2023-09-19T13:06:16.768Z,70.13
2023-09-19T13:07:21.302Z,70.38
2023-09-19T13:08:25.629Z,70.21
2023-09-19T13:09:30.057Z,69.94
2023-09-19T13:10:34.502Z,69.86
2023-09-19T13:11:38.924Z,70.08
2023-09-19T13:12:43.328Z,69.70
2023-09-19T13:13:50.469Z,69.57
2023-09-19T13:14:52.183Z,69.78
2023-09-19T13:15:56.717Z,69.78
2023-09-19T13:17:01.076Z,69.80
2023-09-19T13:18:05.550Z,69.71
2023-09-19T13:20:37.292Z,69.52
2023-09-19T13:21:41.673Z,69.67
2023-09-19T13:22:46.211Z,69.61
2023-09-19T13:23:50.533Z,69.73
2023-09-19T13:24:54.976Z,69.21
2023-09-19T13:25:59.454Z,69.14
2023-09-19T13:27:03.825Z,68.98
2023-09-19T13:28:08.242Z,68.83
2023-09-19T13:29:12.760Z,69.10
2023-09-19T13:30:17.119Z,69.38
2023-09-19T13:31:21.657Z,69.37
2023-09-19T13:32:26.022Z,69.13
2023-09-19T13:33:32.036Z,68.84
2023-09-19T13:34:34.909Z,69.05
2023-09-19T13:35:39.294Z,69.25
2023-09-19T13:36:43.756Z,69.28
2023-09-19T13:37:48.321Z,69.46
2023-09-19T13:38:52.646Z,69.61
2023-09-19T13:40:00.084Z,69.81
2023-09-19T13:41:03.662Z,69.69
2023-09-19T13:42:08.018Z,69.79
2023-09-19T13:43:12.541Z,69.67
2023-09-19T13:44:16.961Z,69.38
2023-09-19T13:45:21.345Z,69.36
2023-09-19T13:46:25.845Z,69.48
2023-09-19T13:47:30.464Z,69.64
2023-09-19T13:48:34.770Z,69.81
2023-09-19T13:49:39.203Z,69.70
2023-09-19T13:50:46.667Z,69.43
2023-09-19T13:51:50.242Z,69.47
2023-09-19T13:52:54.689Z,69.35
2023-09-19T13:53:59.069Z,69.26
2023-09-19T13:55:03.537Z,69.26
2023-09-19T13:56:08.005Z,69.54
2023-09-19T13:57:12.397Z,69.66
2023-09-19T13:58:16.874Z,69.64